Time;durP1;ratioP1;P1;durP2;ratioP2;P2;SDS_P1;SDS_P2;PMS_P1;PMS_P2;Temp;Humidity;BMP_temperature;BMP_pressure;BME280_temperature;BME280_humidity;BME280_pressure;Samples;Min_cycle;Max_cycle;Signal;HPM_P1;HPM_P2
2021/12/13 00:01:20;;;;;;;16.73;4.72;;;;;;;9.40;100.00;102506.00;5074812;28;20029;-74
2021/12/13 00:04:05;;;;;;;12.00;4.50;;;;;;;9.36;100.00;102506.94;5074486;28;20021;-76
2021/12/13 00:06:38;;;;;;;13.07;4.43;;;;;;;9.33;100.00;102502.56;5085317;28;20495;-75
2021/12/13 00:09:10;;;;;;;13.88;4.35;;;;;;;9.32;100.00;102500.81;5093927;28;20106;-75
2021/12/13 00:11:42;;;;;;;13.25;3.80;;;;;;;9.32;100.00;102514.03;5094695;28;20032;-76
2021/12/13 00:14:10;;;;;;;;;;;;;;;9.30;100.00;102507.88;5095031;28;20024;-76
2021/12/13 00:16:41;;;;;;;12.68;4.18;;;;;;;9.31;100.00;102506.09;5094246;28;19919;-75
2021/12/13 00:19:10;;;;;;;9.02;3.55;;;;;;;9.31;100.00;102504.34;5094164;28;20020;-72
2021/12/13 00:21:56;;;;;;;13.15;3.63;;;;;;;9.31;100.00;102499.06;5094463;28;20084;-72
2021/12/13 00:24:24;;;;;;;8.52;3.78;;;;;;;9.32;100.00;102506.09;5094222;28;20024;-72
2021/12/13 00:26:59;;;;;;;10.43;3.58;;;;;;;9.32;100.00;102503.44;5093797;28;20376;-75
2021/12/13 00:29:44;;;;;;;12.27;4.00;;;;;;;9.31;100.00;102503.44;5094133;28;20028;-75
2021/12/13 00:32:22;;;;;;;9.95;3.53;;;;;;;9.31;100.00;102500.78;5093989;28;20020;-75
2021/12/13 00:34:54;;;;;;;9.63;3.20;;;;;;;9.31;100.00;102506.97;5093432;28;20055;-74
2021/12/13 00:37:23;;;;;;;9.15;3.00;;;;;;;9.32;100.00;102502.56;5093513;28;20483;-76
2021/12/13 00:39:58;;;;;;;12.88;3.30;;;;;;;9.29;100.00;102513.19;5093546;28;20020;-75
2021/12/13 00:42:29;;;;;;;7.63;2.92;;;;;;;9.26;100.00;102508.81;5093939;28;20024;-75
2021/12/13 00:45:03;;;;;;;10.82;3.00;;;;;;;9.20;100.00;102516.81;5094096;28;20028;-74
2021/12/13 00:47:31;;;;;;;10.07;3.10;;;;;;;9.14;100.00;102515.13;5093889;28;20027;-75
2021/12/13 00:50:06;;;;;;;6.35;2.97;;;;;;;9.06;100.00;102516.09;5076151;28;20016;-73
2021/12/13 00:52:33;;;;;;;10.18;3.60;;;;;;;9.06;100.00;102511.69;5093897;28;20036;-71
2021/12/13 00:54:59;;;;;;;10.38;3.28;;;;;;;9.09;100.00;102513.41;5093507;28;20032;-71
2021/12/13 00:57:39;;;;;;;10.20;3.50;;;;;;;9.10;100.00;102510.75;5093806;28;20035;-71
2021/12/13 01:00:10;;;;;;;9.00;3.33;;;;;;;9.21;100.00;102522.97;5093139;28;20315;-70
2021/12/13 01:02:50;;;;;;;9.77;3.50;;;;;;;9.25;100.00;102517.63;5093614;28;20178;-70
2021/12/13 01:05:25;;;;;;;8.95;3.45;;;;;;;9.28;100.00;102519.34;5093589;28;20027;-76
2021/12/13 01:08:14;;;;;;;7.55;2.80;;;;;;;9.34;100.00;102519.28;5093681;28;20089;-75
2021/12/13 01:10:39;;;;;;;7.93;3.08;;;;;;;9.35;100.00;102529.84;5092651;28;20020;-72
2021/12/13 01:13:28;;;;;;;9.60;2.83;;;;;;;9.35;100.00;102537.75;5075147;28;20041;-75
2021/12/13 01:16:12;;;;;;;8.98;3.38;;;;;;;9.38;100.00;102541.28;5031085;28;20037;-76
2021/12/13 01:21:38;;;;;;;9.45;3.00;;;;;;;9.35;100.00;102532.47;5030323;28;20041;-75
2021/12/13 01:24:10;;;;;;;6.53;3.20;;;;;;;9.37;100.00;102537.75;5030593;28;20072;-76
2021/12/13 01:26:45;;;;;;;8.13;3.28;;;;;;;9.36;100.00;102533.38;5030954;28;20049;-75
2021/12/13 01:29:19;;;;;;;8.57;3.83;;;;;;;9.32;100.00;102534.28;5031049;28;20119;-74
2021/12/13 01:31:53;;;;;;;11.82;3.38;;;;;;;9.29;100.00;102539.63;5029742;28;20051;-74
2021/12/13 01:34:20;;;;;;;9.63;3.45;;;;;;;9.30;100.00;102539.59;5030555;28;20497;-75
2021/12/13 01:36:57;;;;;;;6.88;3.50;;;;;;;9.24;100.00;102529.09;5013954;28;20040;-74
2021/12/13 01:39:27;;;;;;;6.72;3.15;;;;;;;9.23;100.00;102539.69;5030930;28;20030;-72
2021/12/13 01:42:04;;;;;;;7.40;3.30;;;;;;;9.25;100.00;102538.78;5013257;28;20038;-75
2021/12/13 01:44:34;;;;;;;8.38;2.92;;;;;;;9.27;100.00;102544.94;5030110;28;20041;-73
2021/12/13 01:47:30;;;;;;;6.22;2.95;;;;;;;9.32;100.00;102542.22;5029564;28;20075;-76
2021/12/13 01:50:28;;;;;;;8.32;3.65;;;;;;;9.30;100.00;102547.53;5029676;28;20045;-76
2021/12/13 01:52:55;;;;;;;4.35;2.47;;;;;;;9.35;100.00;102544.84;5051697;28;20093;-75
2021/12/13 01:55:34;;;;;;;8.35;2.80;;;;;;;9.31;100.00;102548.38;5092591;28;20032;-75
2021/12/13 01:58:26;;;;;;;6.53;2.75;;;;;;;9.29;100.00;102550.19;5092759;28;20020;-76
2021/12/13 02:01:11;;;;;;;8.57;3.05;;;;;;;9.30;100.00;102542.22;5092673;28;20028;-75
2021/12/13 02:04:03;;;;;;;5.65;2.80;;;;;;;9.27;100.00;102547.56;5092074;28;20110;-75
2021/12/13 02:06:31;;;;;;;;;;;;;;;9.32;100.00;102545.75;5093132;28;20124;-74
2021/12/13 02:09:02;;;;;;;8.40;2.78;;;;;;;9.33;100.00;102550.16;5092638;28;19911;-74
2021/12/13 02:11:30;;;;;;;5.97;2.95;;;;;;;9.32;100.00;102550.13;5090853;28;20062;-75
2021/12/13 02:14:11;;;;;;;6.18;2.90;;;;;;;9.33;100.00;102551.91;5091598;28;20032;-75
2021/12/13 02:19:40;;;;;;;6.25;2.97;;;;;;;9.29;100.00;102553.69;5092873;28;20472;-72
2021/12/13 02:22:40;;;;;;;7.43;3.20;;;;;;;9.25;100.00;102556.41;5074429;28;20421;-72
2021/12/13 02:25:19;;;;;;;7.13;3.60;;;;;;;9.26;100.00;102548.47;5091822;28;20567;-72
2021/12/13 02:27:58;;;;;;;8.32;3.90;;;;;;;9.24;100.00;102558.16;5092077;28;20028;-71
2021/12/13 02:30:34;;;;;;;7.13;3.92;;;;;;;9.22;100.00;102565.25;5092452;28;20062;-76
2021/12/13 02:33:01;;;;;;;10.02;4.50;;;;;;;9.20;100.00;102559.09;5091541;28;20038;-72
2021/12/13 02:35:30;;;;;;;8.90;4.68;;;;;;;9.17;100.00;102565.28;5092268;28;20032;-72
2021/12/13 02:37:58;;;;;;;9.50;4.88;;;;;;;9.16;100.00;102565.31;5092180;28;20044;-74
2021/12/13 02:40:23;;;;;;;9.90;5.38;;;;;;;9.11;100.00;102551.28;5092399;28;20503;-72
2021/12/13 02:42:51;;;;;;;11.88;5.45;;;;;;;9.10;100.00;102558.31;5091523;28;20027;-71
2021/12/13 02:45:43;;;;;;;11.57;5.95;;;;;;;9.06;100.00;102553.09;5092219;28;20028;-74
2021/12/13 02:48:30;;;;;;;12.13;5.93;;;;;;;9.09;100.00;102545.13;5092445;28;20024;-75
2021/12/13 02:51:23;;;;;;;12.55;6.40;;;;;;;9.09;100.00;102547.78;5092272;28;20462;-75
2021/12/13 02:53:54;;;;;;;11.63;6.97;;;;;;;9.09;100.00;102551.31;5091801;28;20032;-75
2021/12/13 02:56:25;;;;;;;14.07;7.15;;;;;;;9.08;100.00;102553.94;5091645;28;20024;-75
2021/12/13 02:58:53;;;;;;;10.75;7.35;;;;;;;9.08;100.00;102556.59;5093575;28;20024;-74
2021/12/13 03:01:25;;;;;;;12.23;6.80;;;;;;;9.13;100.00;102557.41;5096186;28;20024;-76
2021/12/13 03:03:55;;;;;;;12.50;7.30;;;;;;;9.10;100.00;102544.25;5077414;28;20080;-71
2021/12/13 03:06:31;;;;;;;13.18;7.90;;;;;;;9.10;100.00;102545.09;5095661;28;20024;-72
2021/12/13 03:09:01;;;;;;;13.25;6.88;;;;;;;9.11;100.00;102549.50;5075561;28;20599;-75
2021/12/13 03:11:32;;;;;;;15.35;7.45;;;;;;;9.12;100.00;102547.75;5075432;28;20039;-75
2021/12/13 03:14:13;;;;;;;13.20;7.60;;;;;;;9.13;100.00;102547.72;5081967;28;20109;-75
2021/12/13 03:16:46;;;;;;;13.98;7.65;;;;;;;9.09;100.00;102542.47;5095881;28;20028;-75
2021/12/13 03:19:28;;;;;;;13.20;7.70;;;;;;;9.05;100.00;102536.34;5095391;28;20024;-75
2021/12/13 03:22:31;;;;;;;13.75;8.07;;;;;;;9.05;100.00;102544.28;5095644;28;20578;-75
2021/12/13 03:25:14;;;;;;;12.48;7.72;;;;;;;9.02;100.00;102542.53;5094994;28;20038;-75
2021/12/13 03:27:54;;;;;;;14.73;8.05;;;;;;;8.97;100.00;102540.84;5095043;28;20035;-75
2021/12/13 03:30:27;;;;;;;14.35;7.93;;;;;;;8.95;100.00;102545.28;5075240;28;20028;-75
2021/12/13 03:33:05;;;;;;;11.63;7.45;;;;;;;8.96;100.00;102539.97;5075260;28;20095;-75
2021/12/13 03:35:44;;;;;;;14.38;8.35;;;;;;;8.97;100.00;102546.16;5086626;28;20035;-74
2021/12/13 03:38:17;;;;;;;11.95;8.00;;;;;;;8.98;100.00;102540.84;5094874;28;20028;-74
2021/12/13 03:40:42;;;;;;;13.50;7.97;;;;;;;8.98;100.00;102539.97;5094658;28;20498;-72
2021/12/13 03:43:15;;;;;;;12.52;7.95;;;;;;;9.00;100.00;102532.88;5095074;28;20024;-75
2021/12/13 03:45:48;;;;;;;14.85;7.45;;;;;;;9.02;100.00;102528.47;5086534;28;20040;-75
2021/12/13 03:48:15;;;;;;;15.07;7.35;;;;;;;9.06;100.00;102524.91;5076923;28;20369;-74
2021/12/13 03:50:45;;;;;;;10.68;6.47;;;;;;;9.07;100.00;102526.66;5094835;28;20020;-75
2021/12/13 03:53:14;;;;;;;10.77;6.40;;;;;;;9.14;100.00;102524.81;5094903;28;20503;-75
2021/12/13 03:55:45;;;;;;;12.70;6.30;;;;;;;9.15;100.00;102535.34;5094922;28;20103;-76
2021/12/13 03:58:13;;;;;;;11.73;6.32;;;;;;;9.20;100.00;102535.31;5094875;28;20024;-75
2021/12/13 04:00:46;;;;;;;9.80;6.20;;;;;;;9.22;100.00;102538.81;5094645;28;20058;-76
2021/12/13 04:03:14;;;;;;;10.25;6.00;;;;;;;9.22;100.00;102537.94;5094751;28;20099;-75
2021/12/13 04:05:40;;;;;;;10.38;6.18;;;;;;;9.26;100.00;102537.00;5094415;28;20024;-74
2021/12/13 04:08:11;;;;;;;10.35;6.28;;;;;;;9.27;100.00;102531.72;5094717;28;20028;-74
2021/12/13 04:10:43;;;;;;;12.18;5.75;;;;;;;9.27;100.00;102530.81;5093419;28;20032;-76
2021/12/13 04:13:14;;;;;;;11.18;6.30;;;;;;;9.29;100.00;102529.03;5094527;28;20016;-75
2021/12/13 04:19:20;;;;;;;9.00;6.40;;;;;;;9.23;99.90;102532.63;5094651;28;20477;-74
2021/12/13 04:22:00;;;;;;;10.43;6.25;;;;;;;9.16;100.00;102531.81;5088184;28;20055;-74
2021/12/13 04:25:18;;;;;;;11.60;6.43;;;;;;;9.18;100.00;102535.34;5012306;28;20046;-74
2021/12/13 04:27:48;;;;;;;10.10;6.10;;;;;;;9.22;100.00;102535.28;4953517;28;20039;-74
2021/12/13 04:30:34;;;;;;;10.40;6.10;;;;;;;9.20;99.65;102535.31;4953860;29;20051;-75
2021/12/13 04:33:06;;;;;;;9.20;6.32;;;;;;;9.16;99.93;102531.81;4954607;28;20110;-72
2021/12/13 04:35:32;;;;;;;12.68;6.45;;;;;;;9.18;100.00;102537.09;4953876;29;20046;-71
2021/12/13 04:38:00;;;;;;;11.18;6.93;;;;;;;9.13;100.00;102534.50;4953316;29;20039;-72
2021/12/13 04:40:30;;;;;;;12.45;6.82;;;;;;;9.10;100.00;102534.53;4953858;29;20053;-73
2021/12/13 04:43:00;;;;;;;12.40;6.30;;;;;;;9.12;100.00;102539.81;4954644;28;20550;-72
2021/12/13 04:45:27;;;;;;;10.73;6.72;;;;;;;9.08;100.00;102536.34;4953212;29;20714;-72
2021/12/13 04:48:01;;;;;;;9.55;5.95;;;;;;;9.09;100.00;102539.84;4953128;29;20039;-72
2021/12/13 04:50:45;;;;;;;11.80;5.93;;;;;;;9.02;100.00;102542.53;4953500;29;20091;-72
2021/12/13 04:53:18;;;;;;;9.15;6.00;;;;;;;9.00;100.00;102539.06;4954351;28;20070;-71
2021/12/13 04:55:44;;;;;;;9.27;6.25;;;;;;;9.02;100.00;102531.13;4953305;28;20090;-71
2021/12/13 04:58:12;;;;;;;11.30;5.35;;;;;;;9.03;100.00;102538.16;4953090;29;20039;-71
2021/12/13 05:00:44;;;;;;;11.80;5.97;;;;;;;9.05;100.00;102533.72;4944394;29;20039;-71
2021/12/13 05:03:12;;;;;;;12.00;5.95;;;;;;;9.06;100.00;102535.47;4956890;28;20046;-75
2021/12/13 05:05:39;;;;;;;7.07;4.95;;;;;;;9.08;99.75;102533.69;5086008;28;20032;-74
2021/12/13 05:08:08;;;;;;;12.02;6.25;;;;;;;9.08;99.56;102538.09;5093319;28;20024;-74
2021/12/13 05:10:35;;;;;;;10.25;6.05;;;;;;;9.11;99.30;102540.72;5093420;28;20024;-74
2021/12/13 05:13:09;;;;;;;9.32;5.55;;;;;;;9.12;99.09;102553.03;5093459;28;20106;-75
2021/12/13 05:15:37;;;;;;;8.95;5.28;;;;;;;9.13;98.79;102555.66;5092798;28;20059;-73
2021/12/13 05:18:08;;;;;;;9.07;6.07;;;;;;;9.14;98.94;102545.94;5093183;28;20024;-74
2021/12/13 05:20:38;;;;;;;9.60;5.85;;;;;;;9.13;98.87;102555.66;5093089;28;20042;-75
2021/12/13 05:23:09;;;;;;;13.07;6.32;;;;;;;9.15;98.46;102547.72;5093037;28;20065;-75
2021/12/13 05:25:45;;;;;;;13.68;5.95;;;;;;;9.13;99.12;102545.09;5092655;28;20024;-75
2021/12/13 05:28:18;;;;;;;7.25;4.88;;;;;;;9.13;98.46;102550.38;5093069;28;20035;-74
2021/12/13 05:31:00;;;;;;;8.60;5.20;;;;;;;9.16;98.08;102552.09;5090241;28;20028;-70
2021/12/13 05:33:30;;;;;;;9.05;5.10;;;;;;;9.15;97.72;102543.28;5092861;28;20109;-75
2021/12/13 05:35:59;;;;;;;12.57;5.30;;;;;;;9.15;97.92;102540.63;5092687;28;20031;-75
2021/12/13 05:38:33;;;;;;;11.40;4.85;;;;;;;9.16;97.81;102544.19;5092716;28;20035;-76
2021/12/13 05:41:05;;;;;;;10.95;5.13;;;;;;;9.18;97.39;102545.00;5092289;28;20025;-75
2021/12/13 05:43:33;;;;;;;10.88;5.53;;;;;;;9.20;97.27;102550.31;5092673;28;20376;-75
2021/12/13 05:46:03;;;;;;;9.90;5.80;;;;;;;9.23;96.92;102544.97;5092257;28;20020;-75
2021/12/13 05:48:35;;;;;;;10.15;5.57;;;;;;;9.23;96.86;102547.63;5092716;28;20024;-76
2021/12/13 05:51:05;;;;;;;10.27;5.25;;;;;;;9.23;96.30;102542.31;5092488;28;20098;-75
2021/12/13 05:53:45;;;;;;;10.00;5.68;;;;;;;9.21;96.79;102545.00;5092408;28;20031;-75
2021/12/13 05:56:16;;;;;;;9.40;5.25;;;;;;;9.21;96.95;102550.28;5092827;28;20463;-76
2021/12/13 05:58:41;;;;;;;8.20;5.20;;;;;;;9.22;96.58;102549.41;5092196;28;20529;-76
2021/12/13 06:01:17;;;;;;;9.20;5.25;;;;;;;9.20;96.42;102559.09;5092024;28;20036;-75
2021/12/13 06:03:50;;;;;;;13.20;5.53;;;;;;;9.18;96.66;102558.22;5092647;28;20020;-76
2021/12/13 06:06:24;;;;;;;10.10;5.50;;;;;;;9.17;96.86;102549.44;5092486;28;20491;-74
2021/12/13 06:08:53;;;;;;;9.80;5.85;;;;;;;9.17;96.50;102553.88;5092233;28;20024;-75
2021/12/13 06:11:34;;;;;;;9.70;5.53;;;;;;;9.16;96.98;102549.47;5091880;28;20036;-75
2021/12/13 06:14:04;;;;;;;11.00;5.20;;;;;;;9.14;96.71;102554.78;5092456;28;20035;-75
2021/12/13 06:16:49;;;;;;;10.35;5.57;;;;;;;9.15;96.78;102555.63;5092203;28;20031;-75
2021/12/13 06:19:37;;;;;;;9.07;5.13;;;;;;;9.15;96.33;102559.13;5092247;28;20123;-75
2021/12/13 06:22:05;;;;;;;10.32;5.22;;;;;;;9.16;96.74;102563.53;5091732;28;20032;-74
2021/12/13 06:24:46;;;;;;;9.60;5.32;;;;;;;9.12;96.49;102560.97;5092433;28;20020;-75
2021/12/13 06:27:23;;;;;;;9.68;5.47;;;;;;;9.14;96.44;102565.34;5092431;28;20024;-75
2021/12/13 06:29:59;;;;;;;9.25;5.10;;;;;;;9.21;95.86;102568.78;5092281;28;20031;-76
2021/12/13 06:32:53;;;;;;;10.65;6.18;;;;;;;9.16;96.38;102562.69;5091960;28;20093;-77
2021/12/13 06:35:34;;;;;;;11.23;6.15;;;;;;;9.16;96.72;102554.75;5095966;28;20500;-76
2021/12/13 06:38:22;;;;;;;10.68;6.72;;;;;;;9.14;96.68;102559.16;5096095;28;20422;-76
2021/12/13 06:40:49;;;;;;;10.30;6.65;;;;;;;9.17;96.13;102561.78;5095400;28;20024;-76
2021/12/13 06:43:37;;;;;;;12.65;7.07;;;;;;;9.20;96.44;102572.31;5095922;28;20119;-73
2021/12/13 06:46:10;;;;;;;13.50;6.68;;;;;;;9.20;96.40;102566.16;5096303;28;20020;-76
2021/12/13 06:48:43;;;;;;;11.35;7.28;;;;;;;9.22;96.53;102567.91;5095407;28;20529;-74
2021/12/13 06:51:12;;;;;;;14.98;7.45;;;;;;;9.22;96.23;102561.72;5075311;28;20471;-76
2021/12/13 06:53:39;;;;;;;17.73;8.98;;;;;;;9.23;96.45;102563.47;5095432;28;20032;-76
2021/12/13 06:56:26;;;;;;;13.70;8.02;;;;;;;9.21;96.40;102563.50;5095389;28;20028;-75
2021/12/13 06:58:58;;;;;;;14.90;7.85;;;;;;;9.20;96.76;102574.97;5095410;28;20032;-75
2021/12/13 07:01:26;;;;;;;14.60;8.75;;;;;;;9.21;96.72;102568.78;5095959;28;20024;-76
2021/12/13 07:03:59;;;;;;;15.00;8.65;;;;;;;9.24;96.18;102581.09;5077208;28;20020;-77
2021/12/13 07:06:25;;;;;;;14.60;8.65;;;;;;;9.22;96.18;102581.13;5096017;28;20052;-77
2021/12/13 07:09:21;;;;;;;14.13;8.93;;;;;;;9.24;96.21;102591.66;5095736;28;20048;-76
2021/12/13 07:11:54;;;;;;;13.85;8.60;;;;;;;9.21;96.28;102579.34;4993604;28;20050;-76
2021/12/13 07:14:36;;;;;;;16.50;8.65;;;;;;;9.22;96.12;102596.09;4992939;28;20038;-76
2021/12/13 07:17:12;;;;;;;14.65;8.70;;;;;;;9.20;96.07;102590.81;4993379;28;20034;-77
2021/12/13 07:19:40;;;;;;;15.63;8.55;;;;;;;9.19;96.12;102589.06;4993468;28;20049;-75
2021/12/13 07:22:07;;;;;;;16.00;8.82;;;;;;;9.21;95.91;102579.34;4993331;28;20039;-77
2021/12/13 07:24:42;;;;;;;15.88;8.95;;;;;;;9.22;96.31;102589.03;4993400;28;20096;-75
2021/12/13 07:27:14;;;;;;;18.35;9.30;;;;;;;9.26;95.59;102592.50;4993380;28;20084;-76
2021/12/13 07:29:48;;;;;;;16.52;9.25;;;;;;;9.26;95.78;102598.69;4993598;28;20034;-76
2021/12/13 07:32:29;;;;;;;15.50;9.05;;;;;;;9.23;95.80;102605.78;4993485;28;20030;-77
2021/12/13 07:35:06;;;;;;;15.32;8.80;;;;;;;9.20;95.87;102603.19;4992346;28;20550;-76
2021/12/13 07:37:54;;;;;;;16.40;9.30;;;;;;;9.23;96.16;102613.69;4993149;28;20066;-77
2021/12/13 07:40:38;;;;;;;14.70;8.85;;;;;;;9.23;95.91;102619.84;4993097;28;20440;-74
2021/12/13 07:43:04;;;;;;;17.27;9.35;;;;;;;9.19;96.24;102628.72;4986738;28;20208;-74
2021/12/13 07:45:50;;;;;;;15.82;9.18;;;;;;;9.21;96.18;102620.75;4995565;28;20109;-74
2021/12/13 07:48:23;;;;;;;17.35;9.93;;;;;;;9.20;95.90;102624.31;5049106;28;20032;-74
2021/12/13 07:51:26;;;;;;;14.65;9.95;;;;;;;9.21;96.38;102621.66;5077542;28;20089;-76
2021/12/13 07:54:06;;;;;;;19.38;9.93;;;;;;;9.21;96.35;102619.00;5094932;28;20036;-72
2021/12/13 07:56:31;;;;;;;17.35;9.40;;;;;;;9.18;96.48;102621.66;5093630;28;20814;-77
2021/12/13 07:59:10;;;;;;;14.18;8.88;;;;;;;9.21;95.93;102616.38;5094937;28;20103;-73
2021/12/13 08:01:50;;;;;;;17.67;9.32;;;;;;;9.21;96.34;102631.34;5094125;28;20024;-76
2021/12/13 08:04:26;;;;;;;18.67;9.60;;;;;;;9.18;95.90;102625.22;5094406;28;20035;-78
2021/12/13 08:06:59;;;;;;;15.18;8.88;;;;;;;9.23;96.09;102624.28;5094495;28;20035;-76
2021/12/13 08:09:28;;;;;;;17.00;9.38;;;;;;;9.25;95.40;102617.22;5094954;28;20059;-76
2021/12/13 08:12:14;;;;;;;17.00;9.30;;;;;;;9.24;95.75;102620.75;5093853;28;20024;-75
2021/12/13 08:14:42;;;;;;;17.50;9.63;;;;;;;9.22;95.94;102611.94;5090762;28;20075;-75
2021/12/13 08:17:33;;;;;;;16.90;9.18;;;;;;;9.21;95.92;102621.66;5089729;28;20016;-76
2021/12/13 08:20:05;;;;;;;17.08;9.30;;;;;;;9.21;95.54;102629.59;5093219;28;20048;-76
2021/12/13 08:22:31;;;;;;;18.35;8.93;;;;;;;9.22;95.29;102635.72;5093599;28;20512;-77
2021/12/13 08:25:07;;;;;;;19.55;9.68;;;;;;;9.22;95.36;102628.69;5094439;28;20066;-79
2021/12/13 08:27:37;;;;;;;16.83;9.27;;;;;;;9.25;94.95;102626.00;5093199;28;20038;-77
2021/12/13 08:30:09;;;;;;;16.35;8.80;;;;;;;9.22;95.64;102615.47;5075386;28;20062;-77
2021/12/13 08:32:36;;;;;;;16.98;9.27;;;;;;;9.23;95.10;102611.91;5093815;28;20476;-78
2021/12/13 08:35:05;;;;;;;17.05;9.45;;;;;;;9.24;94.78;102618.09;5074952;28;20138;-77
2021/12/13 08:37:35;;;;;;;14.93;8.90;;;;;;;9.29;94.85;102618.94;5096439;28;20055;-76
2021/12/13 08:40:10;;;;;;;15.65;8.60;;;;;;;9.29;94.38;102624.22;5096228;28;20032;-76
2021/12/13 08:42:42;;;;;;;17.13;9.35;;;;;;;9.31;94.48;102620.66;5112334;28;20020;-76
2021/12/13 08:45:16;;;;;;;20.23;8.77;;;;;;;9.31;94.39;102630.34;5074021;28;20082;-76
2021/12/13 08:47:52;;;;;;;19.05;9.60;;;;;;;9.32;94.53;102634.75;5074029;28;20040;-72
2021/12/13 08:50:50;;;;;;;16.13;9.00;;;;;;;9.31;94.86;102636.53;5073348;28;20028;-74
2021/12/13 08:53:34;;;;;;;17.35;9.55;;;;;;;9.36;94.39;102639.13;5083758;28;20079;-74
2021/12/13 08:56:08;;;;;;;15.75;8.90;;;;;;;9.40;94.48;102643.47;5072668;28;20016;-77
2021/12/13 08:58:34;;;;;;;18.77;9.82;;;;;;;9.41;94.57;102654.94;5095243;28;20012;-76
2021/12/13 09:01:10;;;;;;;20.42;10.00;;;;;;;9.42;94.32;102660.19;5095919;28;20122;-76
2021/12/13 09:03:46;;;;;;;17.52;10.23;;;;;;;9.44;94.26;102670.78;5084274;28;20378;-76
2021/12/13 09:06:25;;;;;;;18.02;10.05;;;;;;;9.48;94.35;102670.72;5092951;28;20035;-76
2021/12/13 09:09:06;;;;;;;16.10;9.35;;;;;;;9.50;94.31;102674.22;5092785;28;20055;-75
2021/12/13 09:11:38;;;;;;;16.42;9.85;;;;;;;9.56;94.09;102680.34;5091005;28;20028;-74
2021/12/13 09:14:31;;;;;;;17.08;9.88;;;;;;;9.60;93.95;102687.34;5088047;28;20028;-75
2021/12/13 09:17:06;;;;;;;18.02;10.00;;;;;;;9.57;94.22;102697.97;5078290;28;20032;-75
2021/12/13 09:19:36;;;;;;;20.50;9.70;;;;;;;9.56;94.02;102693.56;5090708;28;20028;-76
2021/12/13 09:22:07;;;;;;;19.92;10.43;;;;;;;9.55;94.27;102697.94;5087397;28;20047;-76
2021/12/13 09:24:39;;;;;;;18.98;10.23;;;;;;;9.53;93.63;102710.34;5092300;28;20024;-74
2021/12/13 09:27:12;;;;;;;;;;;;;;;9.54;94.19;102706.81;5091796;28;20020;-76
2021/12/13 09:30:16;;;;;;;22.83;12.07;;;;;;;9.49;94.63;102703.34;5082732;28;20003;-76
2021/12/13 09:33:06;;;;;;;19.90;10.88;;;;;;;9.44;94.86;102698.09;4997167;28;20046;-76
2021/12/13 09:35:39;;;;;;;19.23;10.90;;;;;;;9.51;94.75;102709.47;4996586;28;20081;-76
2021/12/13 09:38:27;;;;;;;16.83;10.23;;;;;;;9.53;94.39;102710.34;4996987;28;20419;-76
2021/12/13 09:41:04;;;;;;;17.70;10.32;;;;;;;9.60;94.00;102719.06;4999915;28;20034;-77
2021/12/13 09:44:02;;;;;;;22.98;10.23;;;;;;;9.67;93.80;102720.78;4991493;28;20498;-75
2021/12/13 09:47:02;;;;;;;19.48;10.60;;;;;;;9.71;93.66;102722.50;4952681;28;20035;-76
2021/12/13 09:49:45;;;;;;;19.88;10.27;;;;;;;9.74;93.68;102717.16;4910659;29;20045;-76
2021/12/13 09:52:31;;;;;;;18.58;10.30;;;;;;;9.75;93.39;102718.03;4895407;29;20512;-75
2021/12/13 09:55:20;;;;;;;22.40;10.80;;;;;;;9.73;93.17;102723.34;4895561;29;20059;-77
2021/12/13 09:57:48;;;;;;;17.25;9.75;;;;;;;9.75;92.75;102731.28;4894431;29;20036;-75
2021/12/13 10:00:22;;;;;;;16.08;9.10;;;;;;;9.80;93.08;102725.03;4894640;29;20507;-73
2021/12/13 10:02:54;;;;;;;20.75;9.50;;;;;;;9.83;92.67;102726.75;4894456;29;20394;-76
2021/12/13 10:05:29;;;;;;;16.02;8.73;;;;;;;9.84;92.94;102717.94;4890712;29;20084;-75
2021/12/13 10:08:00;;;;;;;19.02;9.57;;;;;;;9.92;92.22;102725.78;4885057;29;20089;-76
2021/12/13 10:10:32;;;;;;;19.52;10.35;;;;;;;9.92;92.03;102726.63;4933319;29;20050;-75
2021/12/13 10:13:07;;;;;;;19.05;9.32;;;;;;;9.94;91.40;102730.16;4931920;29;20043;-77
2021/12/13 10:15:43;;;;;;;18.13;9.73;;;;;;;9.93;91.56;102728.41;4933265;29;20047;-76
2021/12/13 10:18:14;;;;;;;19.25;9.50;;;;;;;9.93;91.75;102724.91;4932771;29;20032;-73
2021/12/13 10:20:43;;;;;;;20.58;10.27;;;;;;;9.96;91.60;102733.69;4945393;29;20043;-74
2021/12/13 10:23:14;;;;;;;18.70;9.82;;;;;;;10.02;91.55;102729.19;4948737;28;20071;-76
2021/12/13 10:25:45;;;;;;;17.88;9.70;;;;;;;10.04;91.40;102720.34;4996747;28;20113;-75
2021/12/13 10:28:15;;;;;;;18.15;9.90;;;;;;;10.00;91.58;102716.00;5084149;28;20107;-76
2021/12/13 10:30:49;;;;;;;16.75;9.10;;;;;;;10.02;91.75;102723.91;5092395;28;20028;-75
2021/12/13 10:33:17;;;;;;;17.77;9.32;;;;;;;10.04;91.28;102723.00;5091893;28;20082;-73
2021/12/13 10:35:44;;;;;;;20.30;9.65;;;;;;;10.06;90.75;102713.25;5091680;28;20028;-72
2021/12/13 10:38:14;;;;;;;17.75;9.02;;;;;;;10.08;90.92;102719.41;5091657;28;20031;-76
2021/12/13 10:40:47;;;;;;;17.38;9.25;;;;;;;10.09;90.95;102722.91;5091569;28;20027;-76
2021/12/13 10:43:20;;;;;;;18.00;9.48;;;;;;;10.12;91.53;102712.31;5088187;28;20035;-72
2021/12/13 10:45:56;;;;;;;17.95;9.80;;;;;;;10.08;91.17;102714.13;5092024;28;20493;-75
2021/12/13 10:48:26;;;;;;;19.13;9.70;;;;;;;10.06;90.82;102713.25;5092144;28;20032;-76
2021/12/13 10:51:05;;;;;;;19.98;9.48;;;;;;;10.09;91.56;102717.63;5090976;28;20433;-76
2021/12/13 10:53:32;;;;;;;17.95;10.23;;;;;;;10.07;91.19;102719.44;5091302;28;20384;-78
2021/12/13 10:56:03;;;;;;;16.38;9.27;;;;;;;10.06;90.98;102720.31;5091868;28;20107;-72
2021/12/13 10:58:32;;;;;;;19.95;9.55;;;;;;;10.05;91.10;102715.91;5091830;28;20038;-74
2021/12/13 11:01:05;;;;;;;18.20;9.48;;;;;;;10.07;91.36;102722.09;5092250;28;20059;-77
2021/12/13 11:03:31;;;;;;;20.80;11.02;;;;;;;10.13;90.87;102714.06;5091703;28;20040;-75
2021/12/13 11:06:00;;;;;;;19.77;10.65;;;;;;;10.11;91.02;102715.84;5091314;28;20056;-76
2021/12/13 11:08:27;;;;;;;21.25;10.02;;;;;;;10.14;90.94;102718.44;5091752;28;20093;-76
2021/12/13 11:10:57;;;;;;;17.85;9.63;;;;;;;10.18;91.36;102717.53;5091718;28;20028;-75
2021/12/13 11:13:31;;;;;;;17.92;9.88;;;;;;;10.16;90.49;102711.38;5087988;28;20104;-76
2021/12/13 11:16:04;;;;;;;19.08;9.73;;;;;;;10.12;91.02;102713.16;5091690;28;20055;-76
2021/12/13 11:18:31;;;;;;;20.02;10.48;;;;;;;10.13;91.31;102714.06;5091987;28;20024;-77
2021/12/13 11:21:04;;;;;;;22.88;9.93;;;;;;;10.12;91.19;102713.16;5094114;28;20084;-75
2021/12/13 11:23:29;;;;;;;17.08;10.02;;;;;;;10.14;91.81;102721.09;5094598;28;20051;-76
2021/12/13 11:26:01;;;;;;;19.52;10.05;;;;;;;10.17;91.63;102715.78;5095189;28;20476;-77
2021/12/13 11:28:29;;;;;;;;;;;;;;;10.17;91.56;102716.63;5095380;28;20040;-77
2021/12/13 11:30:55;;;;;;;18.52;9.00;;;;;;;10.21;90.74;102706.03;5095175;28;20031;-75
2021/12/13 11:33:39;;;;;;;20.90;10.13;;;;;;;10.11;91.09;102702.59;5094884;28;20044;-77
2021/12/13 11:36:07;;;;;;;19.52;9.95;;;;;;;10.12;91.51;102713.16;5093213;28;20035;-77
2021/12/13 11:39:13;;;;;;;20.33;10.07;;;;;;;10.14;91.64;102716.69;5094706;28;20533;-77
2021/12/13 11:41:57;;;;;;;18.88;9.38;;;;;;;10.14;91.50;102714.03;5094500;28;20024;-78
2021/12/13 11:44:25;;;;;;;19.92;10.57;;;;;;;10.14;91.85;102714.03;5094798;28;20480;-79
2021/12/13 11:47:15;;;;;;;16.75;10.18;;;;;;;10.17;91.29;102711.34;5095341;28;20050;-78
2021/12/13 11:49:55;;;;;;;20.23;9.93;;;;;;;10.14;91.12;102711.41;5094169;28;20076;-78
2021/12/13 11:52:51;;;;;;;17.17;9.52;;;;;;;10.16;90.99;102709.59;5094313;28;20016;-77
2021/12/13 11:55:35;;;;;;;22.13;10.23;;;;;;;10.12;91.55;102707.00;5094422;28;20034;-78
2021/12/13 11:58:39;;;;;;;19.20;9.23;;;;;;;10.16;91.34;102706.94;5094377;28;20081;-77
2021/12/13 12:01:43;;;;;;;17.98;10.02;;;;;;;10.22;91.65;102703.34;5094932;28;20037;-78
2021/12/13 12:04:27;;;;;;;23.25;9.63;;;;;;;10.24;91.21;102700.66;5075657;28;20472;-77
2021/12/13 12:07:31;;;;;;;20.50;9.80;;;;;;;10.20;90.69;102705.13;5094191;28;20085;-77
2021/12/13 12:10:10;;;;;;;17.58;9.02;;;;;;;10.17;90.73;102708.69;5093998;28;20058;-79